This is the latest recevied weather packets stored in our database for station/object OE-11399. If no packets are shown the sender has not sent any weather packets the latest 10 day(s).
| Time | Temp. | Humidity | Pressure | Rain* | Wind** | Luminosity | Snow |
|---|---|---|---|---|---|---|---|
| 1787994327 | 17.22° C | 74% | 854.4 hPa | 0 mm | - | 506 W/m² | - |
| 1787993727 | 16.67° C | 71% | 854.2 hPa | 0 mm | - | 756 W/m² | - |
| 1787992899 | 16.11° C | 71% | 854.1 hPa | 0 mm | - | 660 W/m² | - |
| 1787992526 | 16.11° C | 74% | 854.2 hPa | 0 mm | - | 741 W/m² | - |
| 1787991926 | 16.11° C | 74% | 854.2 hPa | 0 mm | - | 719 W/m² | - |
| 1787991100 | 15° C | 76% | 854.1 hPa | 0 mm | - | 411 W/m² | - |
| 1787990726 | 14.44° C | 78% | 854 hPa | 0 mm | - | 205 W/m² | - |
| 1787990127 | 14.44° C | 78% | 853.9 hPa | 0 mm | - | 264 W/m² | - |
| 1787989299 | 14.44° C | 80% | 854 hPa | 0 mm | - | 257 W/m² | - |
| 1787988326 | 13.89° C | 83% | 853.8 hPa | 0 mm | - | 176 W/m² | - |
| 1787987500 | 13.89° C | 82% | 853.8 hPa | 0 mm | - | 220 W/m² | - |
| 1787987127 | 13.89° C | 83% | 853.7 hPa | 0 mm | - | 279 W/m² | - |
| 1787986527 | 13.89° C | 84% | 853.7 hPa | 0 mm | - | 249 W/m² | - |
| 1787985700 | 13.89° C | 87% | 853.5 hPa | 0 mm | - | 308 W/m² | - |
| 1787985326 | 13.33° C | 89% | 853.5 hPa | 0 mm | - | 132 W/m² | - |
| 1787984727 | 12.78° C | 91% | 853.7 hPa | 0 mm | - | 44 W/m² | - |
| 1787983900 | 12.78° C | 90% | 853.7 hPa | 0 mm | - | 29 W/m² | - |
| 1787982927 | 12.78° C | 90% | 853.3 hPa | 0 mm | - | 15 W/m² | - |
| 1787982099 | 12.22° C | 90% | 853.4 hPa | 0 mm | - | 15 W/m² | - |
| 1787981727 | 12.22° C | 91% | 853.3 hPa | 0 mm | - | 0 W/m² | - |
| 1787981126 | 12.22° C | 90% | 853.2 hPa | 0 mm | - | 22 W/m² | - |
| 1787980299 | 12.22° C | 91% | 853.1 hPa | 0 mm | - | 22 W/m² | - |
| 1787979926 | 12.22° C | 91% | 853.1 hPa | 0 mm | - | 7 W/m² | - |
| 1787979327 | 12.22° C | 92% | 853 hPa | 0 mm | - | 0 W/m² | - |
| 1787978500 | 12.22° C | 92% | 853.1 hPa | 0 mm | - | 0 W/m² | - |
* Rain latest hour (hover to see other rain measurements)
** Current wind speed in m/s (hover to see current wind gust speed)